createdAt,value
2022-08-17T00:01:51.827Z,36.60
2022-08-17T00:04:21.729Z,34.77
2022-08-17T00:06:50.668Z,32.30
2022-08-17T00:09:19.523Z,33.47
2022-08-17T00:12:40.387Z,33.87
2022-08-17T00:14:38.798Z,34.37
2022-08-17T00:17:07.010Z,33.30
2022-08-17T00:19:35.097Z,33.03
2022-08-17T00:22:32.214Z,36.57
2022-08-17T00:24:54.999Z,32.33
2022-08-17T00:27:23.249Z,36.23
2022-08-17T00:29:52.743Z,33.70
2022-08-17T00:33:13.884Z,33.00
2022-08-17T00:35:12.545Z,34.50
2022-08-17T00:37:41.468Z,34.67
2022-08-17T00:40:11.724Z,35.53
2022-08-17T00:42:40.385Z,34.27
2022-08-17T00:45:12.788Z,37.53
2022-08-17T00:47:41.327Z,37.37
2022-08-17T00:50:12.591Z,36.10
2022-08-17T00:52:46.525Z,36.97
2022-08-17T00:55:15.056Z,36.33
2022-08-17T00:57:45.857Z,35.97
2022-08-17T01:00:21.381Z,40.47
2022-08-17T01:02:49.950Z,39.30
2022-08-17T01:05:21.838Z,39.23
2022-08-17T01:07:51.460Z,40.00
2022-08-17T01:11:00.145Z,39.03
2022-08-17T01:13:13.220Z,40.63
2022-08-17T01:15:48.135Z,40.33
2022-08-17T01:18:16.608Z,39.53
2022-08-17T01:20:48.906Z,37.67
2022-08-17T01:23:21.337Z,40.40
2022-08-17T01:25:52.076Z,39.67
2022-08-17T01:28:36.457Z,38.83
2022-08-17T01:31:13.200Z,41.87
2022-08-17T01:33:41.654Z,41.00
2022-08-17T01:36:10.484Z,40.70
2022-08-17T01:38:40.463Z,38.30
2022-08-17T01:41:12.264Z,38.40
2022-08-17T01:43:45.702Z,41.90
2022-08-17T01:46:17.863Z,39.93
2022-08-17T01:48:47.475Z,41.20
2022-08-17T01:51:16.510Z,39.80
2022-08-17T01:53:49.860Z,42.30
2022-08-17T01:56:20.635Z,41.77
2022-08-17T01:58:49.606Z,41.33
2022-08-17T02:01:19.572Z,40.17
2022-08-17T02:03:54.541Z,43.33
2022-08-17T02:06:31.413Z,42.10
2022-08-17T02:09:03.818Z,40.20
2022-08-17T02:11:34.358Z,41.73
2022-08-17T02:14:04.012Z,42.97
2022-08-17T02:16:37.110Z,43.87
2022-08-17T02:19:08.833Z,43.37
2022-08-17T02:21:37.543Z,46.10
2022-08-17T02:24:09.707Z,41.10
2022-08-17T02:26:38.028Z,43.30
2022-08-17T02:29:07.247Z,43.30
2022-08-17T02:31:35.551Z,42.40
2022-08-17T02:34:05.361Z,43.30
2022-08-17T02:36:35.180Z,42.40
2022-08-17T02:39:04.157Z,42.23
2022-08-17T02:41:33.755Z,42.70
2022-08-17T02:44:02.078Z,42.63
2022-08-17T02:46:31.263Z,42.50
2022-08-17T02:48:59.781Z,42.27
2022-08-17T02:51:28.274Z,42.77
2022-08-17T02:54:02.193Z,42.37
2022-08-17T02:56:46.052Z,41.90
2022-08-17T02:59:14.194Z,39.57
2022-08-17T03:01:42.384Z,39.90
2022-08-17T03:04:10.686Z,39.70
2022-08-17T03:06:38.844Z,40.37
2022-08-17T03:09:06.951Z,41.60
2022-08-17T03:11:35.385Z,42.53
2022-08-17T03:14:04.928Z,41.50
2022-08-17T03:16:33.146Z,43.50
2022-08-17T03:19:02.792Z,41.53
2022-08-17T03:21:30.906Z,42.97
2022-08-17T03:23:59.178Z,46.73
2022-08-17T03:26:29.862Z,48.10
2022-08-17T03:28:58.832Z,42.30
2022-08-17T03:31:28.248Z,44.20
2022-08-17T03:33:56.519Z,42.43
2022-08-17T03:36:24.731Z,44.47
2022-08-17T03:38:52.873Z,42.60
2022-08-17T03:41:23.052Z,44.83
2022-08-17T03:43:51.163Z,46.30
2022-08-17T03:46:36.507Z,45.90
2022-08-17T03:49:25.906Z,46.27
2022-08-17T03:52:11.579Z,44.13
2022-08-17T03:54:57.872Z,46.83
2022-08-17T03:57:26.830Z,50.10
2022-08-17T03:59:55.555Z,48.27
2022-08-17T04:02:27.953Z,46.97
2022-08-17T04:04:57.562Z,49.33
2022-08-17T04:07:27.535Z,50.47
2022-08-17T04:09:55.951Z,49.80
2022-08-17T04:12:25.615Z,55.63
2022-08-17T04:14:55.029Z,52.77
2022-08-17T04:17:25.471Z,55.47
2022-08-17T04:19:54.523Z,53.37
2022-08-17T04:22:32.622Z,55.10
2022-08-17T04:25:06.060Z,55.70
2022-08-17T04:27:34.273Z,55.30
2022-08-17T04:30:02.906Z,52.10
2022-08-17T04:32:59.287Z,52.83
2022-08-17T04:35:21.403Z,53.33
2022-08-17T04:37:51.794Z,52.67
2022-08-17T04:40:38.995Z,56.70
2022-08-17T04:43:08.767Z,53.40
2022-08-17T04:45:55.650Z,52.97
2022-08-17T04:48:35.221Z,52.90
2022-08-17T04:51:07.550Z,53.40
2022-08-17T04:53:37.280Z,54.90
2022-08-17T04:56:06.016Z,51.03
2022-08-17T04:58:34.341Z,55.97
2022-08-17T05:01:02.619Z,54.83
2022-08-17T05:03:31.332Z,53.07
2022-08-17T05:05:59.529Z,53.03
2022-08-17T05:08:27.670Z,52.40
2022-08-17T05:10:57.137Z,55.43
2022-08-17T05:13:27.295Z,51.77
2022-08-17T05:15:57.475Z,59.37
2022-08-17T05:18:26.318Z,56.87
2022-08-17T05:20:54.545Z,57.00
2022-08-17T05:23:24.743Z,56.33
2022-08-17T05:25:55.780Z,56.50
2022-08-17T05:28:28.232Z,57.30
2022-08-17T05:31:00.276Z,57.57
2022-08-17T05:33:31.678Z,58.27
2022-08-17T05:36:01.817Z,58.33
2022-08-17T05:38:31.139Z,56.80
2022-08-17T05:41:00.076Z,58.40
2022-08-17T05:43:31.659Z,57.47
2022-08-17T05:46:04.781Z,57.67
2022-08-17T05:48:39.992Z,56.80
2022-08-17T05:51:32.434Z,58.83
2022-08-17T05:54:16.583Z,57.73
2022-08-17T05:57:08.658Z,55.10
2022-08-17T05:59:48.184Z,55.00
2022-08-17T06:02:22.504Z,55.83
2022-08-17T06:05:11.253Z,52.57
2022-08-17T06:07:49.437Z,54.90
2022-08-17T06:10:27.865Z,56.43
2022-08-17T06:13:06.261Z,55.23
2022-08-17T06:15:45.238Z,55.50
2022-08-17T06:18:18.533Z,54.33
2022-08-17T06:20:52.723Z,53.97
2022-08-17T06:23:27.923Z,55.90
2022-08-17T06:26:03.761Z,53.43
2022-08-17T06:28:38.960Z,58.40
2022-08-17T06:31:20.004Z,54.03
2022-08-17T06:33:48.434Z,55.70
2022-08-17T06:36:30.226Z,54.37
2022-08-17T06:39:10.389Z,57.07
2022-08-17T06:41:49.565Z,54.07
2022-08-17T06:44:50.087Z,50.90
2022-08-17T06:47:15.656Z,55.73
2022-08-17T06:50:15.586Z,55.07
2022-08-17T06:52:52.456Z,53.43
2022-08-17T06:55:26.235Z,50.77
2022-08-17T06:57:58.659Z,54.43
2022-08-17T07:00:33.656Z,51.27
2022-08-17T07:03:11.262Z,53.20
2022-08-17T07:05:45.576Z,52.63
2022-08-17T07:08:19.244Z,51.20
2022-08-17T07:10:50.228Z,50.10
2022-08-17T07:13:31.018Z,51.20
2022-08-17T07:16:17.526Z,47.57
2022-08-17T07:18:47.819Z,49.73
2022-08-17T07:21:26.734Z,48.40
2022-08-17T07:24:29.591Z,48.00
2022-08-17T07:27:08.428Z,52.30
2022-08-17T07:29:44.415Z,47.40
2022-08-17T07:32:18.425Z,47.07
2022-08-17T07:35:19.942Z,44.97
2022-08-17T07:37:53.134Z,48.20
2022-08-17T07:40:31.526Z,47.10
2022-08-17T07:43:23.493Z,46.87
2022-08-17T07:46:21.286Z,46.80
2022-08-17T07:48:52.605Z,44.27
2022-08-17T07:51:26.458Z,45.00
2022-08-17T07:54:13.129Z,43.83
2022-08-17T07:56:46.414Z,45.57
2022-08-17T07:59:18.065Z,45.70
2022-08-17T08:02:06.154Z,42.80
2022-08-17T08:04:59.125Z,40.50
2022-08-17T08:07:31.929Z,40.17
2022-08-17T08:10:09.148Z,40.43
2022-08-17T08:12:39.714Z,41.97
2022-08-17T08:15:18.776Z,39.10
2022-08-17T08:17:53.280Z,40.47
2022-08-17T08:20:51.059Z,38.70
2022-08-17T08:23:27.527Z,38.43
2022-08-17T08:26:08.404Z,38.27
2022-08-17T08:28:46.553Z,35.17
2022-08-17T08:31:24.357Z,35.30
2022-08-17T08:34:03.907Z,34.10
2022-08-17T08:37:14.098Z,36.03
2022-08-17T08:39:41.369Z,34.67
2022-08-17T08:42:24.665Z,33.80
2022-08-17T08:45:05.768Z,30.60
2022-08-17T08:47:52.969Z,31.80
2022-08-17T08:50:37.470Z,32.07
2022-08-17T08:53:21.304Z,30.70
2022-08-17T08:55:55.807Z,26.40
2022-08-17T08:58:41.888Z,28.47
2022-08-17T09:01:20.362Z,30.03
2022-08-17T09:04:23.381Z,28.50
2022-08-17T09:07:02.299Z,27.47
2022-08-17T09:09:41.311Z,27.57
2022-08-17T09:12:22.384Z,27.90
2022-08-17T09:14:57.821Z,27.00
2022-08-17T09:17:36.598Z,29.20
2022-08-17T09:20:11.355Z,26.30
2022-08-17T09:22:59.300Z,23.10
2022-08-17T09:25:32.733Z,24.67
2022-08-17T09:28:05.238Z,25.70
2022-08-17T09:30:43.840Z,26.53
2022-08-17T09:33:15.587Z,22.90
2022-08-17T09:35:48.940Z,24.97
2022-08-17T09:38:23.593Z,20.10
2022-08-17T09:40:58.423Z,21.77
2022-08-17T09:43:38.360Z,22.90
2022-08-17T09:46:12.604Z,25.93
2022-08-17T09:48:45.679Z,23.00
2022-08-17T09:51:22.682Z,24.27
2022-08-17T09:53:51.717Z,23.47
2022-08-17T09:56:43.789Z,23.47
2022-08-17T09:59:39.879Z,24.57
2022-08-17T10:02:32.164Z,24.43
2022-08-17T10:05:05.567Z,21.17
2022-08-17T10:07:41.536Z,25.23
2022-08-17T10:10:16.871Z,27.40
2022-08-17T10:12:52.358Z,25.30
2022-08-17T10:15:36.736Z,22.53
2022-08-17T10:18:18.860Z,24.37
2022-08-17T10:21:15.817Z,22.50
2022-08-17T10:24:02.827Z,23.00
2022-08-17T10:26:46.192Z,21.53
2022-08-17T10:29:40.777Z,20.47
2022-08-17T10:32:38.432Z,19.30
2022-08-17T10:35:33.999Z,23.10
2022-08-17T10:38:25.498Z,22.73
2022-08-17T10:40:58.971Z,20.63
2022-08-17T10:43:36.367Z,20.57
2022-08-17T10:46:30.877Z,18.23
2022-08-17T10:49:29.389Z,17.00
2022-08-17T10:51:59.868Z,19.50
2022-08-17T10:54:40.773Z,20.30
2022-08-17T10:57:38.870Z,17.37
2022-08-17T11:00:14.691Z,18.70
2022-08-17T11:02:52.018Z,20.60
2022-08-17T11:05:44.645Z,19.10
2022-08-17T11:08:45.488Z,19.17
2022-08-17T11:11:35.896Z,19.20
2022-08-17T11:14:26.704Z,17.53
2022-08-17T11:17:11.303Z,16.73
2022-08-17T11:20:10.103Z,16.30
2022-08-17T11:23:07.463Z,16.40
2022-08-17T11:25:39.486Z,14.23
2022-08-17T11:28:14.744Z,13.37
2022-08-17T11:30:50.699Z,12.90
2022-08-17T11:33:57.893Z,11.90
2022-08-17T11:36:49.027Z,8.40
2022-08-17T11:39:32.143Z,7.90
2022-08-17T11:42:07.012Z,7.83
2022-08-17T11:44:46.672Z,7.23
2022-08-17T11:47:41.624Z,7.77
2022-08-17T11:50:43.592Z,7.57
2022-08-17T11:53:45.781Z,7.90
2022-08-17T11:56:32.688Z,9.20
2022-08-17T11:59:01.867Z,7.67
2022-08-17T12:01:55.678Z,7.80
2022-08-17T12:04:29.880Z,7.00
2022-08-17T12:07:01.737Z,7.40
2022-08-17T12:09:33.071Z,7.60
2022-08-17T12:12:13.807Z,7.20
2022-08-17T12:17:40.194Z,6.70
2022-08-17T12:20:24.139Z,6.90
2022-08-17T12:23:04.288Z,6.90
2022-08-17T12:25:39.042Z,6.13
2022-08-17T12:28:23.166Z,6.70
2022-08-17T12:30:52.625Z,6.50
2022-08-17T12:33:28.456Z,7.20
2022-08-17T12:36:00.041Z,7.33
2022-08-17T12:38:32.949Z,6.73
2022-08-17T12:41:24.409Z,7.33
2022-08-17T12:44:02.965Z,6.80
2022-08-17T12:46:34.893Z,6.27
2022-08-17T12:49:24.514Z,6.57
2022-08-17T12:51:58.212Z,7.23
2022-08-17T12:54:34.635Z,7.90
2022-08-17T12:57:10.247Z,6.63
2022-08-17T12:59:45.199Z,6.70
2022-08-17T13:02:28.313Z,6.37
2022-08-17T13:04:58.164Z,6.90
2022-08-17T13:07:32.549Z,5.80
2022-08-17T13:10:01.053Z,6.10
2022-08-17T13:12:32.637Z,6.40
2022-08-17T13:15:02.431Z,6.87
2022-08-17T13:17:34.683Z,6.63
2022-08-17T13:20:04.692Z,6.37
2022-08-17T13:22:33.472Z,12.70
2022-08-17T13:25:07.115Z,8.90
2022-08-17T13:27:35.425Z,7.83
2022-08-17T13:30:11.617Z,7.10
2022-08-17T13:32:43.898Z,7.90
2022-08-17T13:35:40.080Z,8.30
2022-08-17T13:38:10.786Z,7.00
2022-08-17T13:40:43.261Z,6.13
2022-08-17T13:43:12.458Z,5.57
2022-08-17T13:45:50.609Z,5.87
2022-08-17T13:48:30.042Z,6.87
2022-08-17T13:51:15.208Z,6.57
2022-08-17T13:54:09.393Z,6.77
2022-08-17T13:56:50.153Z,6.50
2022-08-17T13:59:36.287Z,6.20
2022-08-17T14:02:21.151Z,6.57
2022-08-17T14:04:50.239Z,6.37
2022-08-17T14:07:40.208Z,6.37
2022-08-17T14:10:13.696Z,6.73
2022-08-17T14:12:44.611Z,6.70
2022-08-17T14:15:14.746Z,6.37
2022-08-17T14:17:44.397Z,6.47
2022-08-17T14:20:14.265Z,6.73
2022-08-17T14:22:46.233Z,6.13
2022-08-17T14:25:16.508Z,7.03
2022-08-17T14:27:53.135Z,6.90
2022-08-17T14:30:24.100Z,6.20
2022-08-17T14:32:55.066Z,6.33
2022-08-17T14:35:25.264Z,6.20
2022-08-17T14:37:53.955Z,6.97
2022-08-17T14:40:24.773Z,6.27
2022-08-17T14:42:55.109Z,6.60
2022-08-17T14:45:31.773Z,6.77
2022-08-17T14:48:05.620Z,6.90
2022-08-17T14:50:35.484Z,6.60
2022-08-17T14:53:05.276Z,6.80
2022-08-17T14:55:33.566Z,12.23
2022-08-17T14:58:01.759Z,7.53
2022-08-17T15:00:29.857Z,6.80
2022-08-17T15:03:00.031Z,7.10
2022-08-17T15:05:32.276Z,6.43
2022-08-17T15:08:00.981Z,6.90
2022-08-17T15:10:30.371Z,7.40
2022-08-17T15:13:00.130Z,6.50
2022-08-17T15:15:28.929Z,6.13
2022-08-17T15:17:57.598Z,6.17
2022-08-17T15:20:29.609Z,6.00
2022-08-17T15:22:59.918Z,6.67
2022-08-17T15:25:30.571Z,5.90
2022-08-17T15:27:58.998Z,6.47
2022-08-17T15:30:28.119Z,8.00
2022-08-17T15:32:58.382Z,7.23
2022-08-17T15:35:29.404Z,6.77
2022-08-17T15:38:04.524Z,6.80
2022-08-17T15:40:36.583Z,7.17
2022-08-17T15:43:06.843Z,7.03
2022-08-17T15:45:35.338Z,6.33
2022-08-17T15:48:03.732Z,6.57
2022-08-17T15:50:31.842Z,6.37
2022-08-17T15:53:03.644Z,6.67
2022-08-17T15:55:33.226Z,7.70
2022-08-17T15:58:02.028Z,7.87
2022-08-17T16:00:30.418Z,6.87
2022-08-17T16:03:44.451Z,7.90
2022-08-17T16:05:50.160Z,6.57
2022-08-17T16:08:21.276Z,7.40
2022-08-17T16:10:50.370Z,7.47
2022-08-17T16:13:19.977Z,7.40
2022-08-17T16:15:56.702Z,7.33
2022-08-17T16:18:27.305Z,7.40
2022-08-17T16:20:55.430Z,7.20
2022-08-17T16:23:25.324Z,7.53
2022-08-17T16:25:54.417Z,7.37
2022-08-17T16:28:30.897Z,7.40
2022-08-17T16:31:07.982Z,7.70
2022-08-17T16:33:37.635Z,7.60
2022-08-17T16:36:06.244Z,7.93
2022-08-17T16:38:36.323Z,8.30
2022-08-17T16:41:05.103Z,8.97
2022-08-17T16:43:34.018Z,8.90
2022-08-17T16:46:02.685Z,7.97
2022-08-17T16:48:31.440Z,9.37
2022-08-17T16:51:03.952Z,8.90
2022-08-17T16:53:33.164Z,10.70
2022-08-17T16:56:03.568Z,9.73
2022-08-17T16:58:31.706Z,10.57
2022-08-17T17:01:00.071Z,10.00
2022-08-17T17:03:30.583Z,10.67
2022-08-17T17:06:09.897Z,10.70
2022-08-17T17:08:44.606Z,12.00
2022-08-17T17:11:17.986Z,12.10
2022-08-17T17:13:54.003Z,11.03
2022-08-17T17:16:32.421Z,12.87
2022-08-17T17:19:10.460Z,12.67
2022-08-17T17:21:46.228Z,12.87
2022-08-17T17:24:17.843Z,13.30
2022-08-17T17:27:09.487Z,13.43
2022-08-17T17:29:49.227Z,13.60
2022-08-17T17:32:22.725Z,15.50
2022-08-17T17:34:55.667Z,15.70
2022-08-17T17:37:28.329Z,15.07
2022-08-17T17:40:00.322Z,13.20
2022-08-17T17:42:32.984Z,12.00
2022-08-17T17:45:08.018Z,9.87
2022-08-17T17:47:36.663Z,10.17
2022-08-17T17:50:07.607Z,8.93
2022-08-17T17:52:47.351Z,8.10
2022-08-17T17:55:43.585Z,7.50
2022-08-17T17:58:26.976Z,5.33
2022-08-17T18:01:02.603Z,5.77
2022-08-17T18:03:50.595Z,5.13
2022-08-17T18:06:31.094Z,5.03
2022-08-17T18:09:19.310Z,5.10
2022-08-17T18:12:03.741Z,5.43
2022-08-17T18:15:04.926Z,5.20
2022-08-17T18:17:34.124Z,5.63
2022-08-17T18:20:02.172Z,5.57
2022-08-17T18:22:31.058Z,6.23
2022-08-17T18:24:59.239Z,6.00
2022-08-17T18:27:33.958Z,5.83
2022-08-17T18:30:24.219Z,5.53
2022-08-17T18:32:52.386Z,5.57
2022-08-17T18:35:35.097Z,5.20
2022-08-17T18:38:29.508Z,15.80
2022-08-17T18:41:03.177Z,6.73
2022-08-17T18:43:36.519Z,6.33
2022-08-17T18:46:29.902Z,6.10
2022-08-17T18:49:00.695Z,6.40
2022-08-17T18:51:41.017Z,6.20
2022-08-17T18:54:21.025Z,6.40
2022-08-17T18:56:53.077Z,5.47
2022-08-17T18:59:33.504Z,5.80
2022-08-17T19:02:34.648Z,5.67
2022-08-17T19:05:14.271Z,5.80
2022-08-17T19:07:45.174Z,5.70
2022-08-17T19:10:23.118Z,6.60
2022-08-17T19:13:00.369Z,7.27
2022-08-17T19:15:36.278Z,6.20
2022-08-17T19:18:15.724Z,7.60
2022-08-17T19:20:48.621Z,8.70
2022-08-17T19:23:23.771Z,9.30
2022-08-17T19:25:54.149Z,8.33
2022-08-17T19:28:25.774Z,6.80
2022-08-17T19:31:02.786Z,6.50
2022-08-17T19:33:32.573Z,6.03
2022-08-17T19:36:07.352Z,6.73
2022-08-17T19:38:49.921Z,6.57
2022-08-17T19:41:25.363Z,5.83
2022-08-17T19:44:19.423Z,7.10
2022-08-17T19:46:56.350Z,6.60
2022-08-17T19:49:46.627Z,7.07
2022-08-17T19:52:33.287Z,7.77
2022-08-17T19:55:10.116Z,7.17
2022-08-17T19:57:49.848Z,6.87
2022-08-17T20:00:19.753Z,7.23
2022-08-17T20:02:55.450Z,6.70
2022-08-17T20:05:29.133Z,7.33
2022-08-17T20:08:03.451Z,7.43
2022-08-17T20:10:54.370Z,8.87
2022-08-17T20:13:32.861Z,8.00
2022-08-17T20:16:02.475Z,7.60
2022-08-17T20:18:47.459Z,8.57
2022-08-17T20:21:22.932Z,8.70
2022-08-17T20:23:54.932Z,8.77
2022-08-17T20:26:27.489Z,9.50
2022-08-17T20:29:37.194Z,8.10
2022-08-17T20:32:25.239Z,9.17
2022-08-17T20:35:17.664Z,9.17
2022-08-17T20:37:54.760Z,10.10
2022-08-17T20:40:39.037Z,10.63
2022-08-17T20:43:44.785Z,9.50
2022-08-17T20:46:33.112Z,10.40
2022-08-17T20:49:19.187Z,11.47
2022-08-17T20:52:02.384Z,10.90
2022-08-17T20:54:50.817Z,11.23
2022-08-17T20:57:45.547Z,11.27
2022-08-17T21:00:34.795Z,10.90
2022-08-17T21:03:49.256Z,11.33
2022-08-17T21:06:23.855Z,13.00
2022-08-17T21:08:57.947Z,14.27
2022-08-17T21:12:04.030Z,15.00
2022-08-17T21:14:59.628Z,14.37
2022-08-17T21:17:48.101Z,16.10
2022-08-17T21:20:32.419Z,15.90
2022-08-17T21:23:28.370Z,17.90
2022-08-17T21:26:09.841Z,17.20
2022-08-17T21:29:00.293Z,17.70
2022-08-17T21:31:34.806Z,18.03
2022-08-17T21:34:26.467Z,19.30
2022-08-17T21:36:56.581Z,19.67
2022-08-17T21:39:34.402Z,19.43
2022-08-17T21:42:02.973Z,21.37
2022-08-17T21:44:38.472Z,19.10
2022-08-17T21:47:16.563Z,20.30
2022-08-17T21:49:44.719Z,20.57
2022-08-17T21:52:15.382Z,22.37
2022-08-17T21:54:51.681Z,20.87
2022-08-17T21:57:23.203Z,20.73
2022-08-17T21:59:58.660Z,21.10
2022-08-17T22:02:30.596Z,25.90
2022-08-17T22:05:00.803Z,20.40
2022-08-17T22:07:37.863Z,20.17
2022-08-17T22:10:08.139Z,20.57
2022-08-17T22:12:36.220Z,17.73
2022-08-17T22:15:09.779Z,17.23
2022-08-17T22:17:50.209Z,15.90
2022-08-17T22:20:20.201Z,14.40
2022-08-17T22:23:29.576Z,14.10
2022-08-17T22:26:01.545Z,13.80
2022-08-17T22:28:42.985Z,13.50
2022-08-17T22:31:14.558Z,13.70
2022-08-17T22:33:46.879Z,14.30
2022-08-17T22:36:24.454Z,14.17
2022-08-17T22:38:55.294Z,14.23
2022-08-17T22:41:32.022Z,14.13
2022-08-17T22:44:07.763Z,13.27
2022-08-17T22:46:42.322Z,13.50
2022-08-17T22:49:10.596Z,13.20
2022-08-17T22:51:44.079Z,13.70
2022-08-17T22:54:36.118Z,12.67
2022-08-17T22:57:23.561Z,13.77
2022-08-17T22:59:54.532Z,14.40
2022-08-17T23:02:26.689Z,13.20
2022-08-17T23:05:16.802Z,13.43
2022-08-17T23:07:46.792Z,12.87
2022-08-17T23:10:15.557Z,13.20
2022-08-17T23:12:43.757Z,13.93
2022-08-17T23:15:15.307Z,14.50
2022-08-17T23:17:45.460Z,13.27
2022-08-17T23:20:16.270Z,13.17
2022-08-17T23:22:51.404Z,15.10
2022-08-17T23:25:27.211Z,14.30
2022-08-17T23:27:55.987Z,14.60
2022-08-17T23:30:25.408Z,12.90
2022-08-17T23:32:55.805Z,14.70
2022-08-17T23:35:40.387Z,14.87
2022-08-17T23:38:10.277Z,13.40
2022-08-17T23:40:39.470Z,15.40
2022-08-17T23:43:24.470Z,14.67
2022-08-17T23:45:55.126Z,14.30
2022-08-17T23:48:36.089Z,16.20
2022-08-17T23:51:09.734Z,14.20
2022-08-17T23:53:40.127Z,14.60
2022-08-17T23:56:11.217Z,14.37
2022-08-17T23:58:42.054Z,15.07
